Time;durP1;ratioP1;P1;durP2;ratioP2;P2;SDS_P1;SDS_P2;PMS_P1;PMS_P2;Temp;Humidity;BMP_temperature;BMP_pressure;BME280_temperature;BME280_humidity;BME280_pressure;Samples;Min_cycle;Max_cycle;Signal;HPM_P1;HPM_P2
2021/08/18 04:01:41;;;;;;;16.20;10.20;;;14.40;99.90;;;;;;5371007;23;20952;-70
2021/08/18 04:04:08;;;;;;;12.90;9.47;;;14.50;99.90;;;;;;4943653;28;20532;-70
2021/08/18 04:06:35;;;;;;;13.00;10.10;;;14.50;99.90;;;;;;4950253;28;20983;-70
2021/08/18 04:09:02;;;;;;;13.70;10.63;;;14.50;99.90;;;;;;4948170;28;20484;-69
2021/08/18 04:11:28;;;;;;;11.93;9.50;;;14.50;99.90;;;;;;4961831;28;20566;-70
2021/08/18 04:13:55;;;;;;;16.13;10.80;;;14.50;99.90;;;;;;4953436;29;20484;-70
2021/08/18 04:16:22;;;;;;;14.97;10.70;;;14.60;99.90;;;;;;4954807;28;20596;-70
2021/08/18 04:18:50;;;;;;;14.40;9.93;;;14.50;99.90;;;;;;4958034;28;20465;-70
2021/08/18 04:21:16;;;;;;;14.53;10.90;;;14.50;99.90;;;;;;4954306;28;20484;-70
2021/08/18 04:23:43;;;;;;;14.60;10.80;;;14.50;99.90;;;;;;4954085;28;20465;-70
2021/08/18 04:26:10;;;;;;;13.20;10.30;;;14.50;99.90;;;;;;4954231;28;20564;-70
2021/08/18 04:28:37;;;;;;;16.40;11.40;;;14.50;99.90;;;;;;4954148;28;20831;-70
2021/08/18 04:31:03;;;;;;;14.83;10.03;;;14.50;99.90;;;;;;4957417;28;20488;-70
2021/08/18 04:33:30;;;;;;;15.00;9.33;;;14.50;99.90;;;;;;4959587;28;20946;-69
2021/08/18 04:35:58;;;;;;;14.13;9.80;;;14.50;99.90;;;;;;4957009;28;20519;-71
2021/08/18 04:38:24;;;;;;;15.53;9.80;;;14.60;99.90;;;;;;4956622;28;20476;-70
2021/08/18 04:40:51;;;;;;;12.17;9.30;;;14.60;99.90;;;;;;4955721;28;20627;-70
2021/08/18 04:43:18;;;;;;;15.83;10.10;;;14.60;99.90;;;;;;4957749;28;20858;-70
2021/08/18 04:45:45;;;;;;;18.13;9.90;;;14.70;99.90;;;;;;4981633;28;20522;-71
2021/08/18 04:48:12;;;;;;;13.73;9.63;;;14.70;99.90;;;;;;4959848;28;20770;-71
2021/08/18 04:50:38;;;;;;;13.17;9.10;;;14.90;99.90;;;;;;4971084;28;20483;-71
2021/08/18 04:53:10;;;;;;;10.33;7.80;;;15.20;99.90;;;;;;4970542;28;20468;-71
2021/08/18 04:55:37;;;;;;;8.43;7.67;;;15.50;99.90;;;;;;4972217;28;20495;-71
2021/08/18 04:58:04;;;;;;;21.77;11.97;;;15.60;99.90;;;;;;4954796;28;20514;-70
2021/08/18 05:00:31;;;;;;;9.27;7.50;;;15.60;99.90;;;;;;4957957;28;20549;-71
2021/08/18 05:02:58;;;;;;;9.30;8.10;;;15.70;99.90;;;;;;4951747;28;20539;-73
2021/08/18 05:05:25;;;;;;;11.03;8.87;;;15.60;99.90;;;;;;4953796;28;20461;-72
2021/08/18 05:07:51;;;;;;;10.13;7.83;;;15.60;99.90;;;;;;4944860;28;20853;-72
2021/08/18 05:10:20;;;;;;;11.87;8.73;;;15.70;99.90;;;;;;4964276;28;20828;-72
2021/08/18 05:12:46;;;;;;;9.97;8.30;;;15.70;99.90;;;;;;4953472;28;20560;-70
2021/08/18 05:15:13;;;;;;;10.20;9.00;;;15.70;99.90;;;;;;4965839;28;20484;-70
2021/08/18 05:17:40;;;;;;;9.03;7.80;;;15.70;99.90;;;;;;4965154;28;20824;-70
2021/08/18 05:20:08;;;;;;;10.17;9.17;;;15.60;99.90;;;;;;4965702;28;20916;-71
2021/08/18 05:22:35;;;;;;;13.00;9.90;;;15.70;99.90;;;;;;4959524;28;20461;-71
2021/08/18 05:25:01;;;;;;;9.27;8.37;;;15.60;99.90;;;;;;4962676;28;20452;-72
2021/08/18 05:27:29;;;;;;;11.30;9.53;;;15.60;99.90;;;;;;4958973;28;20471;-71
2021/08/18 05:29:56;;;;;;;11.50;9.57;;;15.60;99.90;;;;;;4957045;28;20555;-71
2021/08/18 05:32:22;;;;;;;14.50;9.57;;;15.60;99.90;;;;;;4953671;28;20899;-71
2021/08/18 05:34:49;;;;;;;10.80;9.17;;;15.60;99.90;;;;;;4948982;29;20496;-72
2021/08/18 05:37:16;;;;;;;10.37;8.83;;;15.60;99.90;;;;;;4948927;28;20474;-69
2021/08/18 05:39:42;;;;;;;11.13;8.60;;;15.60;99.90;;;;;;4957257;28;20486;-69
2021/08/18 05:42:09;;;;;;;8.80;7.80;;;15.60;99.90;;;;;;4972015;28;20846;-70
2021/08/18 05:44:37;;;;;;;8.80;8.00;;;15.60;99.90;;;;;;4968960;28;20815;-72
2021/08/18 05:47:04;;;;;;;8.17;7.10;;;15.60;99.90;;;;;;4953099;28;20461;-72
2021/08/18 05:49:31;;;;;;;7.93;7.20;;;15.60;99.90;;;;;;4954843;28;20456;-72
2021/08/18 05:51:58;;;;;;;9.83;7.60;;;15.60;99.90;;;;;;4955172;28;20565;-71
2021/08/18 05:54:24;;;;;;;9.80;7.43;;;15.60;99.90;;;;;;4953300;28;20858;-71
2021/08/18 05:56:52;;;;;;;9.67;7.27;;;15.60;99.90;;;;;;4940387;28;20463;-71
2021/08/18 05:59:18;;;;;;;10.10;8.10;;;15.60;99.90;;;;;;4966522;28;21017;-72
2021/08/18 06:01:46;;;;;;;8.03;7.33;;;15.60;99.90;;;;;;4957758;28;20492;-72
2021/08/18 06:04:13;;;;;;;9.13;7.10;;;15.70;99.90;;;;;;4975881;28;20463;-72
2021/08/18 06:06:40;;;;;;;12.80;8.03;;;15.70;99.90;;;;;;4958872;28;20465;-71
2021/08/18 06:09:06;;;;;;;8.17;7.10;;;15.80;99.90;;;;;;4968613;28;20461;-72
2021/08/18 06:11:33;;;;;;;7.03;6.03;;;15.80;99.90;;;;;;4955784;28;20499;-72
2021/08/18 06:14:00;;;;;;;7.83;7.07;;;15.80;99.90;;;;;;4955740;28;20500;-72
2021/08/18 06:16:26;;;;;;;6.83;6.07;;;15.80;99.90;;;;;;4955071;29;20961;-71
2021/08/18 06:18:54;;;;;;;7.73;6.87;;;15.80;99.90;;;;;;4960610;28;20948;-71
2021/08/18 06:21:21;;;;;;;7.23;6.10;;;15.90;99.90;;;;;;4958716;28;20480;-73
2021/08/18 06:23:47;;;;;;;6.47;5.87;;;16.00;99.90;;;;;;4956312;28;20539;-71
2021/08/18 06:26:14;;;;;;;6.60;6.10;;;16.10;99.90;;;;;;4975633;28;20937;-72
2021/08/18 06:28:41;;;;;;;5.97;5.47;;;16.10;99.90;;;;;;4957587;28;20465;-72
2021/08/18 06:31:07;;;;;;;6.80;6.20;;;16.20;99.90;;;;;;4974476;28;20484;-71
2021/08/18 06:33:34;;;;;;;6.80;6.13;;;16.30;99.90;;;;;;4964714;28;20953;-72
2021/08/18 06:36:02;;;;;;;6.33;5.83;;;16.40;99.90;;;;;;4966729;28;20484;-72
2021/08/18 06:38:30;;;;;;;6.00;5.60;;;16.40;99.90;;;;;;4954618;28;20520;-71
2021/08/18 06:40:57;;;;;;;6.77;6.17;;;16.40;99.90;;;;;;4964546;28;21012;-72
2021/08/18 06:43:23;;;;;;;8.60;6.53;;;16.50;99.90;;;;;;4955386;28;20503;-72
2021/08/18 06:45:50;;;;;;;5.70;5.20;;;16.50;99.90;;;;;;4955807;29;20837;-72
2021/08/18 06:48:17;;;;;;;7.07;6.23;;;16.40;99.90;;;;;;4965516;28;20481;-72
2021/08/18 06:50:44;;;;;;;8.83;6.97;;;16.40;99.90;;;;;;4972520;28;21057;-72
2021/08/18 06:53:12;;;;;;;6.80;6.20;;;16.40;99.90;;;;;;4960632;28;20778;-71
2021/08/18 06:55:38;;;;;;;7.83;6.57;;;16.40;99.90;;;;;;4970415;28;20489;-71
2021/08/18 06:58:05;;;;;;;6.40;5.93;;;16.60;99.90;;;;;;4965403;28;20836;-71
2021/08/18 07:00:32;;;;;;;6.40;5.80;;;16.70;99.90;;;;;;4967121;28;20485;-72
2021/08/18 07:02:58;;;;;;;6.70;6.03;;;16.80;99.90;;;;;;4946754;28;20469;-71
2021/08/18 07:05:31;;;;;;;5.47;5.00;;;16.90;99.90;;;;;;4953281;29;21016;-70
2021/08/18 07:07:57;;;;;;;6.50;5.90;;;17.00;99.90;;;;;;4954735;28;20563;-71
2021/08/18 07:10:25;;;;;;;6.33;5.80;;;17.10;99.90;;;;;;4972768;28;20475;-71
2021/08/18 07:12:52;;;;;;;6.23;5.80;;;17.10;99.90;;;;;;4954204;28;20511;-70
2021/08/18 07:15:19;;;;;;;6.17;5.77;;;17.10;99.90;;;;;;4953601;28;20487;-71
2021/08/18 07:17:46;;;;;;;6.10;5.80;;;17.00;99.90;;;;;;4953263;29;20601;-71
2021/08/18 07:20:13;;;;;;;5.40;5.00;;;17.00;99.90;;;;;;4955637;28;20460;-71
2021/08/18 07:22:40;;;;;;;6.10;5.63;;;16.90;99.90;;;;;;4963336;28;20987;-71
2021/08/18 07:25:07;;;;;;;7.57;6.10;;;16.90;99.90;;;;;;4954394;28;20472;-71
2021/08/18 07:27:35;;;;;;;5.37;4.90;;;16.80;99.90;;;;;;4954209;29;20477;-71
2021/08/18 07:30:02;;;;;;;7.90;6.07;;;16.80;99.90;;;;;;4955340;28;20465;-72
2021/08/18 07:32:28;;;;;;;5.70;5.30;;;16.70;99.90;;;;;;4949465;29;20497;-72
2021/08/18 07:34:55;;;;;;;5.33;5.03;;;16.70;99.90;;;;;;4953142;29;20551;-71
2021/08/18 07:37:22;;;;;;;5.80;5.40;;;16.60;99.90;;;;;;4947670;28;20958;-71
2021/08/18 07:39:48;;;;;;;5.27;4.97;;;16.60;99.90;;;;;;4950554;28;20488;-71
2021/08/18 07:42:15;;;;;;;5.60;5.30;;;16.60;99.90;;;;;;4953731;28;20488;-71
2021/08/18 07:44:43;;;;;;;5.30;4.93;;;16.50;99.90;;;;;;4954524;28;20507;-71
2021/08/18 07:47:10;;;;;;;5.50;5.03;;;16.50;99.90;;;;;;4959352;28;20519;-72
2021/08/18 07:49:37;;;;;;;4.33;4.10;;;16.40;99.90;;;;;;4971419;28;20755;-72
2021/08/18 07:52:04;;;;;;;4.13;3.93;;;16.50;99.90;;;;;;4964496;28;20864;-69
2021/08/18 07:54:31;;;;;;;3.90;3.70;;;16.50;99.90;;;;;;4972947;28;20490;-70
2021/08/18 07:56:58;;;;;;;3.70;3.50;;;16.50;99.90;;;;;;4972328;28;20468;-69
2021/08/18 07:59:24;;;;;;;3.83;3.73;;;16.60;99.90;;;;;;4973873;28;20523;-68
2021/08/18 08:01:53;;;;;;;3.90;3.80;;;16.60;99.90;;;;;;4973770;28;20590;-68
2021/08/18 08:04:19;;;;;;;4.30;4.10;;;16.70;99.90;;;;;;4974373;28;20880;-68
2021/08/18 08:06:46;;;;;;;3.70;3.50;;;16.80;99.90;;;;;;4973071;28;20507;-68
2021/08/18 08:09:13;;;;;;;3.97;3.87;;;16.90;99.90;;;;;;4973931;28;20468;-68
2021/08/18 08:11:39;;;;;;;3.33;3.23;;;17.10;99.90;;;;;;4973683;28;20484;-69
2021/08/18 08:14:06;;;;;;;3.57;3.47;;;17.40;99.90;;;;;;4973446;28;20484;-69
2021/08/18 08:16:32;;;;;;;3.50;3.40;;;17.70;99.90;;;;;;4970485;28;20491;-68
2021/08/18 08:19:00;;;;;;;3.40;3.13;;;17.90;99.90;;;;;;4935021;29;20469;-68
2021/08/18 08:21:27;;;;;;;3.40;3.30;;;17.90;99.90;;;;;;4934574;29;20863;-68
2021/08/18 08:23:54;;;;;;;2.73;2.63;;;17.80;99.90;;;;;;4935099;29;20497;-68
2021/08/18 08:26:21;;;;;;;2.90;2.80;;;17.60;99.90;;;;;;4935073;28;20540;-68
2021/08/18 08:28:47;;;;;;;3.50;3.40;;;17.50;99.90;;;;;;4935116;29;20472;-68
2021/08/18 08:31:14;;;;;;;3.40;3.30;;;17.40;99.90;;;;;;4934824;29;20494;-68
2021/08/18 08:33:41;;;;;;;2.83;2.63;;;17.40;99.90;;;;;;4934966;29;20465;-68
2021/08/18 08:36:09;;;;;;;2.80;2.80;;;17.50;99.90;;;;;;4934609;29;20501;-69
2021/08/18 08:38:36;;;;;;;2.90;2.80;;;17.70;99.90;;;;;;4934579;29;20533;-68
2021/08/18 08:41:04;;;;;;;5.73;3.37;;;17.80;99.90;;;;;;4935340;29;20547;-68
2021/08/18 08:43:30;;;;;;;2.97;2.73;;;18.00;99.90;;;;;;4934327;29;20485;-68
2021/08/18 08:45:57;;;;;;;2.83;2.73;;;18.30;99.90;;;;;;4935496;29;20544;-69
2021/08/18 08:48:24;;;;;;;2.90;2.80;;;18.40;99.90;;;;;;4934856;29;20512;-68
2021/08/18 08:50:51;;;;;;;2.87;2.77;;;18.40;99.90;;;;;;4934314;29;20501;-69
2021/08/18 08:53:19;;;;;;;2.47;2.37;;;18.50;99.90;;;;;;4933839;29;20469;-69
2021/08/18 08:55:46;;;;;;;3.10;3.00;;;18.30;99.90;;;;;;4934472;29;20808;-68
2021/08/18 08:58:13;;;;;;;3.17;3.03;;;18.20;99.90;;;;;;4933579;29;20469;-69
2021/08/18 09:00:40;;;;;;;3.17;2.97;;;18.10;99.90;;;;;;4934392;29;20599;-69
2021/08/18 09:03:08;;;;;;;3.07;2.87;;;18.00;99.90;;;;;;4934550;29;20470;-72
2021/08/18 09:05:36;;;;;;;9.07;3.27;;;18.00;99.90;;;;;;4934679;29;20500;-72
2021/08/18 09:08:02;;;;;;;3.33;3.13;;;18.00;99.90;;;;;;4933907;29;20505;-72
2021/08/18 09:10:30;;;;;;;4.47;3.27;;;18.10;99.90;;;;;;4934876;29;20486;-68
2021/08/18 09:13:14;;;;;;;3.23;3.03;;;18.20;99.90;;;;;;4933725;29;20473;-68
2021/08/18 09:15:41;;;;;;;3.77;3.57;;;18.20;99.90;;;;;;4934427;29;20489;-68
2021/08/18 09:18:08;;;;;;;2.87;2.87;;;18.10;99.90;;;;;;4936674;29;20469;-68
2021/08/18 09:20:40;;;;;;;3.87;3.57;;;18.00;99.90;;;;;;4954043;28;20543;-69
2021/08/18 09:23:09;;;;;;;3.70;3.60;;;17.80;99.90;;;;;;4955943;28;20949;-68
2021/08/18 09:25:39;;;;;;;4.23;3.80;;;17.70;99.90;;;;;;4956386;28;20973;-69
2021/08/18 09:28:17;;;;;;;4.20;3.23;;;17.70;99.90;;;;;;4972668;28;20574;-68
2021/08/18 09:30:46;;;;;;;4.43;4.17;;;17.70;99.90;;;;;;4966597;28;20480;-68
2021/08/18 09:33:14;;;;;;;5.03;4.60;;;17.70;99.90;;;;;;4965498;28;20462;-72
2021/08/18 09:35:42;;;;;;;4.07;3.90;;;17.80;99.90;;;;;;4956350;28;20488;-69
2021/08/18 09:38:11;;;;;;;4.27;4.07;;;17.90;99.90;;;;;;4956348;28;20551;-69
2021/08/18 09:40:40;;;;;;;3.47;3.27;;;17.90;99.90;;;;;;4956164;28;21012;-68
2021/08/18 09:43:10;;;;;;;3.37;3.17;;;17.80;99.90;;;;;;4955451;28;20516;-69
2021/08/18 09:45:39;;;;;;;3.87;3.60;;;17.70;99.90;;;;;;4967798;28;20467;-70
2021/08/18 09:48:08;;;;;;;4.37;4.23;;;17.60;99.90;;;;;;4962843;28;20518;-69
2021/08/18 09:50:45;;;;;;;4.87;4.47;;;17.50;99.90;;;;;;4965477;28;20524;-69
2021/08/18 09:53:13;;;;;;;4.27;3.97;;;17.50;99.90;;;;;;4959294;28;20459;-68
2021/08/18 09:55:50;;;;;;;4.63;4.23;;;17.60;99.90;;;;;;4955527;28;20484;-70
2021/08/18 09:58:26;;;;;;;4.83;4.30;;;17.80;99.90;;;;;;4950301;28;20849;-69
2021/08/18 10:00:54;;;;;;;3.47;3.27;;;18.00;99.90;;;;;;4946891;28;20491;-68
2021/08/18 10:03:21;;;;;;;3.80;3.50;;;18.20;99.90;;;;;;4949670;28;20461;-69
2021/08/18 10:05:50;;;;;;;2.97;2.87;;;18.20;99.90;;;;;;4952751;28;20535;-70
2021/08/18 10:08:19;;;;;;;3.67;3.47;;;18.30;99.90;;;;;;4934729;29;20981;-71
2021/08/18 10:10:47;;;;;;;3.50;3.30;;;18.40;99.90;;;;;;4949628;28;20520;-70
2021/08/18 10:13:15;;;;;;;4.13;3.83;;;18.40;99.90;;;;;;4953667;29;20809;-71
2021/08/18 10:15:42;;;;;;;2.97;2.87;;;18.30;99.90;;;;;;4954689;28;20484;-70
2021/08/18 10:18:10;;;;;;;3.37;3.27;;;18.30;99.90;;;;;;4951699;29;20499;-70
2021/08/18 10:20:38;;;;;;;3.60;3.10;;;18.20;99.90;;;;;;4954097;28;21083;-69
2021/08/18 10:23:06;;;;;;;3.47;3.30;;;18.20;99.90;;;;;;4955161;28;20575;-71
2021/08/18 10:25:38;;;;;;;2.80;2.70;;;18.30;99.90;;;;;;4956583;28;20460;-71
2021/08/18 10:28:08;;;;;;;2.87;2.77;;;18.40;99.90;;;;;;4953648;28;20565;-70
2021/08/18 10:30:49;;;;;;;2.90;2.80;;;18.40;99.90;;;;;;4956284;29;20481;-71
2021/08/18 10:33:59;;;;;;;5.33;2.80;;;18.60;99.90;;;;;;4950070;28;20519;-71
2021/08/18 10:37:01;;;;;;;3.67;3.03;;;18.90;99.90;;;;;;4955507;29;20492;-70
2021/08/18 10:39:30;;;;;;;2.90;2.90;;;19.00;99.90;;;;;;4935758;29;20567;-68
2021/08/18 10:41:58;;;;;;;3.93;3.60;;;19.00;99.90;;;;;;4938269;28;20500;-69
2021/08/18 10:44:38;;;;;;;2.60;2.50;;;19.00;99.90;;;;;;4954442;28;20477;-68
2021/08/18 10:47:22;;;;;;;4.27;3.87;;;19.00;99.90;;;;;;4954808;29;20972;-68
2021/08/18 10:49:51;;;;;;;4.53;3.70;;;18.80;99.90;;;;;;4956067;28;20527;-67
2021/08/18 10:52:54;;;;;;;3.30;3.20;;;18.80;99.90;;;;;;4955143;29;20486;-68
2021/08/18 10:55:32;;;;;;;3.57;3.27;;;18.70;99.90;;;;;;4955834;28;20476;-68
2021/08/18 10:58:01;;;;;;;3.40;3.30;;;18.70;99.90;;;;;;4955262;28;20487;-68
2021/08/18 11:00:36;;;;;;;4.17;3.80;;;18.70;99.90;;;;;;4939742;28;20540;-68
2021/08/18 11:03:05;;;;;;;4.00;3.70;;;18.60;99.90;;;;;;4954841;28;20976;-68
2021/08/18 11:05:51;;;;;;;6.57;3.83;;;18.50;99.90;;;;;;4956075;28;20519;-68
2021/08/18 11:08:20;;;;;;;3.37;3.23;;;18.40;99.90;;;;;;4951069;28;20472;-68
2021/08/18 11:11:13;;;;;;;4.00;3.60;;;18.30;99.90;;;;;;4953681;28;20492;-68
2021/08/18 11:13:41;;;;;;;4.00;3.83;;;18.20;99.90;;;;;;4954285;29;20886;-68
2021/08/18 11:16:12;;;;;;;4.77;4.40;;;18.10;99.90;;;;;;4955171;28;20484;-68
2021/08/18 11:18:46;;;;;;;4.10;3.80;;;18.10;99.90;;;;;;4954134;28;20503;-68
2021/08/18 11:21:16;;;;;;;3.47;3.27;;;18.30;99.90;;;;;;4956634;28;20874;-68
2021/08/18 11:23:53;;;;;;;4.97;3.73;;;18.50;99.90;;;;;;4960079;28;20536;-68
2021/08/18 11:26:22;;;;;;;3.37;3.27;;;18.70;99.90;;;;;;4953877;29;20464;-68
2021/08/18 11:29:01;;;;;;;3.40;3.20;;;18.80;99.90;;;;;;4961034;28;20463;-68
2021/08/18 11:31:49;;;;;;;3.57;3.43;;;19.00;99.90;;;;;;4964116;28;20491;-68
2021/08/18 11:34:24;;;;;;;3.00;2.80;;;19.20;99.90;;;;;;4955457;28;20461;-68
2021/08/18 11:36:57;;;;;;;3.07;2.80;;;19.40;99.90;;;;;;4956366;28;20487;-67
2021/08/18 11:39:24;;;;;;;2.67;2.57;;;19.60;99.90;;;;;;4954675;29;21029;-69
2021/08/18 11:41:51;;;;;;;2.60;2.40;;;19.70;99.90;;;;;;4958263;28;20584;-69
2021/08/18 11:44:26;;;;;;;2.80;2.70;;;19.80;99.90;;;;;;4956364;28;20472;-69
2021/08/18 11:46:55;;;;;;;2.93;2.83;;;19.80;99.90;;;;;;4960636;28;20467;-69
2021/08/18 11:49:24;;;;;;;2.77;2.67;;;19.80;99.90;;;;;;4954772;28;20502;-67
2021/08/18 11:51:51;;;;;;;2.90;2.80;;;19.80;99.90;;;;;;4955186;28;20594;-68
2021/08/18 11:54:22;;;;;;;3.07;2.97;;;19.80;99.90;;;;;;4955699;28;20512;-70
2021/08/18 11:56:59;;;;;;;1.87;1.77;;;20.00;99.90;;;;;;4973922;28;20538;-68
2021/08/18 11:59:25;;;;;;;2.03;1.97;;;20.00;99.90;;;;;;4964490;28;20789;-67
2021/08/18 12:01:54;;;;;;;2.00;2.00;;;20.10;99.90;;;;;;4954312;29;20492;-67
2021/08/18 12:04:22;;;;;;;1.83;1.73;;;20.20;99.90;;;;;;4954493;28;20468;-67
2021/08/18 12:07:05;;;;;;;1.40;1.40;;;20.30;99.90;;;;;;4953237;28;20457;-67
2021/08/18 12:09:31;;;;;;;1.53;1.50;;;20.30;99.90;;;;;;4954646;28;20528;-68
2021/08/18 12:12:06;;;;;;;1.47;1.47;;;20.30;99.90;;;;;;4953444;28;20497;-68
2021/08/18 12:14:38;;;;;;;1.87;1.87;;;20.20;99.90;;;;;;4962276;28;20529;-68
2021/08/18 12:17:06;;;;;;;1.80;1.80;;;20.20;99.90;;;;;;4962012;28;20498;-67
2021/08/18 12:19:37;;;;;;;1.77;1.77;;;20.10;99.90;;;;;;4950516;28;20463;-68
2021/08/18 12:22:20;;;;;;;1.83;1.83;;;20.00;99.90;;;;;;4958762;28;20504;-69
2021/08/18 12:24:50;;;;;;;1.60;1.60;;;20.00;99.90;;;;;;4964796;28;20966;-68
2021/08/18 12:27:24;;;;;;;2.97;1.20;;;20.00;99.90;;;;;;4942344;28;20465;-67
2021/08/18 12:30:02;;;;;;;1.87;1.80;;;20.00;99.90;;;;;;4949927;28;20467;-70
2021/08/18 12:32:30;;;;;;;1.77;1.77;;;20.10;99.90;;;;;;4952502;28;20487;-68
2021/08/18 12:35:00;;;;;;;1.77;1.67;;;20.20;99.90;;;;;;4952392;28;20464;-68
2021/08/18 12:37:29;;;;;;;2.20;2.10;;;20.30;99.90;;;;;;4952984;28;20488;-68
2021/08/18 12:39:57;;;;;;;2.57;2.57;;;20.40;99.90;;;;;;4954192;29;20883;-69
2021/08/18 12:42:26;;;;;;;2.40;2.40;;;20.40;99.90;;;;;;4952117;28;20861;-69
2021/08/18 12:45:06;;;;;;;2.60;2.50;;;20.40;99.90;;;;;;4954245;29;20539;-69
2021/08/18 12:47:36;;;;;;;2.33;2.13;;;20.30;99.90;;;;;;4953805;29;20469;-69
2021/08/18 12:50:06;;;;;;;2.47;2.47;;;20.20;99.90;;;;;;4954854;29;20465;-67
2021/08/18 12:52:32;;;;;;;2.67;2.57;;;20.30;99.90;;;;;;4953048;28;20509;-68
2021/08/18 12:55:01;;;;;;;2.80;2.70;;;20.20;99.90;;;;;;4954043;29;20480;-67
2021/08/18 12:57:28;;;;;;;3.27;3.07;;;20.20;99.90;;;;;;4953020;29;20985;-67
2021/08/18 12:59:54;;;;;;;2.33;2.33;;;20.30;99.90;;;;;;4953790;29;20473;-67
2021/08/18 13:02:21;;;;;;;3.70;3.50;;;20.10;99.90;;;;;;4953330;29;20563;-68
2021/08/18 13:04:49;;;;;;;3.70;3.60;;;20.10;99.90;;;;;;4954169;29;20457;-67
2021/08/18 13:07:16;;;;;;;3.80;3.60;;;19.90;99.90;;;;;;4944344;28;20469;-67
2021/08/18 13:09:42;;;;;;;3.83;3.60;;;19.70;99.90;;;;;;4938763;29;20484;-67
2021/08/18 13:12:09;;;;;;;3.43;3.20;;;19.60;99.90;;;;;;4938100;29;20591;-67
2021/08/18 13:14:36;;;;;;;4.20;4.00;;;19.30;99.90;;;;;;4938336;29;20472;-67
2021/08/18 13:17:03;;;;;;;3.93;3.80;;;19.20;99.90;;;;;;4938445;29;20496;-68
2021/08/18 13:19:30;;;;;;;4.93;4.73;;;19.10;99.90;;;;;;4951971;29;20539;-68
2021/08/18 13:21:58;;;;;;;4.30;4.00;;;18.90;99.90;;;;;;4956839;28;20497;-68
2021/08/18 13:24:24;;;;;;;3.83;3.70;;;18.90;99.90;;;;;;4957403;29;20471;-67
2021/08/18 13:26:53;;;;;;;4.03;3.83;;;18.90;99.90;;;;;;4956660;29;20468;-69
2021/08/18 13:29:20;;;;;;;3.30;3.20;;;19.10;99.90;;;;;;4957565;29;20473;-69
2021/08/18 13:31:46;;;;;;;3.57;3.37;;;19.20;99.90;;;;;;4957335;29;20492;-69
2021/08/18 13:34:13;;;;;;;3.77;3.67;;;19.50;99.90;;;;;;4957311;29;20472;-67
2021/08/18 13:36:40;;;;;;;3.60;3.40;;;19.70;99.90;;;;;;4956686;29;20488;-67
2021/08/18 13:39:08;;;;;;;3.10;3.00;;;19.90;99.90;;;;;;4938034;29;20520;-67
2021/08/18 13:41:35;;;;;;;3.50;3.40;;;20.00;99.90;;;;;;4939890;28;20488;-67
2021/08/18 13:44:02;;;;;;;2.63;2.53;;;20.20;99.90;;;;;;4961778;28;20460;-67
2021/08/18 13:46:29;;;;;;;3.10;2.80;;;20.30;99.90;;;;;;4956363;28;20461;-67
2021/08/18 13:48:56;;;;;;;3.23;3.13;;;20.40;99.90;;;;;;4958510;28;20464;-68
2021/08/18 13:51:23;;;;;;;2.43;2.27;;;20.50;99.90;;;;;;4957421;28;20522;-68
2021/08/18 13:53:51;;;;;;;2.70;2.60;;;20.50;99.90;;;;;;4958346;28;20460;-69
2021/08/18 13:56:19;;;;;;;2.67;2.57;;;20.60;99.90;;;;;;4962463;28;20464;-68
2021/08/18 13:58:46;;;;;;;2.60;2.60;;;20.60;99.90;;;;;;4952066;28;20630;-69
2021/08/18 14:01:12;;;;;;;3.07;2.87;;;20.60;99.90;;;;;;4944761;29;20499;-69
2021/08/18 14:03:39;;;;;;;2.63;2.53;;;20.60;99.90;;;;;;4954304;28;20480;-70
2021/08/18 14:06:07;;;;;;;3.30;3.03;;;20.70;99.90;;;;;;4954131;29;20484;-68
2021/08/18 14:08:34;;;;;;;3.20;3.10;;;20.60;99.90;;;;;;4955988;28;20512;-69
2021/08/18 14:11:00;;;;;;;3.10;2.90;;;20.50;99.90;;;;;;4956204;28;20495;-69
2021/08/18 14:13:28;;;;;;;3.17;3.07;;;20.40;99.90;;;;;;4954934;28;20480;-70
2021/08/18 14:15:55;;;;;;;3.30;3.10;;;20.30;99.90;;;;;;4955477;28;20471;-70
2021/08/18 14:18:22;;;;;;;3.10;3.00;;;20.20;99.90;;;;;;4950831;28;20487;-67
2021/08/18 14:21:09;;;;;;;3.23;3.20;;;20.10;99.90;;;;;;4961642;29;20476;-68
2021/08/18 14:23:37;;;;;;;4.23;4.03;;;19.90;99.90;;;;;;4970289;28;20583;-70
2021/08/18 14:26:05;;;;;;;4.30;4.10;;;19.80;99.90;;;;;;4972989;29;20479;-70
2021/08/18 14:28:34;;;;;;;3.37;3.27;;;19.60;99.90;;;;;;4943631;28;20510;-67
2021/08/18 14:31:00;;;;;;;3.73;3.63;;;19.50;99.90;;;;;;4953166;28;20492;-67
2021/08/18 14:33:28;;;;;;;3.03;2.93;;;19.40;99.90;;;;;;4955160;28;20457;-67
2021/08/18 14:35:54;;;;;;;3.50;3.40;;;19.40;99.90;;;;;;4955758;28;20460;-68
2021/08/18 14:38:21;;;;;;;4.00;3.80;;;19.30;99.90;;;;;;4945169;28;20488;-69
2021/08/18 14:40:49;;;;;;;4.53;4.30;;;19.40;99.90;;;;;;4955621;28;20500;-69
2021/08/18 14:43:15;;;;;;;3.23;3.13;;;19.40;99.90;;;;;;4962958;28;20469;-68
2021/08/18 14:45:43;;;;;;;3.70;3.60;;;19.40;99.90;;;;;;4955470;28;20523;-69
2021/08/18 14:48:10;;;;;;;3.70;3.50;;;19.50;99.90;;;;;;4955526;28;20863;-70
2021/08/18 14:50:37;;;;;;;2.93;2.83;;;19.50;99.90;;;;;;4955205;29;20488;-70
2021/08/18 14:53:06;;;;;;;3.73;3.53;;;19.60;99.90;;;;;;4954039;28;20472;-72
2021/08/18 14:55:32;;;;;;;3.13;2.93;;;19.70;99.90;;;;;;4951418;28;20468;-72
2021/08/18 14:57:59;;;;;;;2.93;2.73;;;19.90;99.90;;;;;;4955172;29;20492;-69
2021/08/18 15:00:26;;;;;;;3.40;3.30;;;19.90;99.90;;;;;;4954925;28;20986;-69
2021/08/18 15:02:54;;;;;;;2.97;2.90;;;20.00;99.90;;;;;;4954536;28;20465;-69
2021/08/18 15:05:21;;;;;;;3.10;3.10;;;20.10;99.90;;;;;;4955266;28;20465;-70
2021/08/18 15:07:48;;;;;;;3.10;3.10;;;20.20;99.90;;;;;;4947341;29;20576;-68
2021/08/18 15:10:15;;;;;;;3.43;3.20;;;20.20;99.90;;;;;;4954926;28;20456;-67
2021/08/18 15:12:41;;;;;;;3.80;3.70;;;20.20;99.90;;;;;;4954384;28;20488;-69
2021/08/18 15:15:09;;;;;;;3.20;3.20;;;20.10;99.90;;;;;;4955199;28;20492;-68
2021/08/18 15:17:36;;;;;;;3.87;3.57;;;20.10;99.90;;;;;;4954344;28;20972;-69
2021/08/18 15:20:05;;;;;;;3.37;3.27;;;20.10;99.90;;;;;;4955060;28;20485;-69
2021/08/18 15:22:32;;;;;;;3.50;3.40;;;20.10;99.90;;;;;;4954046;28;20495;-69
2021/08/18 15:24:59;;;;;;;3.67;3.57;;;20.10;99.90;;;;;;4955070;28;20468;-71
2021/08/18 15:27:25;;;;;;;3.10;3.10;;;20.10;99.90;;;;;;4954912;28;20840;-69
2021/08/18 15:29:52;;;;;;;3.90;3.70;;;20.20;99.90;;;;;;4954360;28;20464;-68
2021/08/18 15:32:20;;;;;;;3.67;3.43;;;20.20;99.90;;;;;;4954280;28;20566;-68
2021/08/18 15:34:48;;;;;;;4.00;3.80;;;20.20;99.90;;;;;;4955126;29;20812;-68
2021/08/18 15:37:17;;;;;;;4.63;4.30;;;20.30;99.90;;;;;;4954908;29;20519;-68
2021/08/18 15:39:45;;;;;;;3.87;3.77;;;20.30;99.90;;;;;;4954403;29;20468;-68
2021/08/18 15:42:14;;;;;;;4.57;4.27;;;20.10;99.90;;;;;;4952581;28;20492;-68
2021/08/18 15:44:41;;;;;;;3.93;3.80;;;19.90;99.90;;;;;;4954414;28;20563;-69
2021/08/18 15:47:10;;;;;;;4.60;4.27;;;19.80;99.90;;;;;;4954775;29;20882;-68
2021/08/18 15:49:38;;;;;;;4.27;3.97;;;19.70;99.90;;;;;;4954022;28;21027;-69
2021/08/18 15:52:07;;;;;;;4.00;3.80;;;19.60;99.90;;;;;;4953563;28;20598;-68
2021/08/18 15:54:35;;;;;;;4.40;4.17;;;19.60;99.90;;;;;;4947764;28;20485;-68
2021/08/18 15:57:03;;;;;;;4.27;4.00;;;19.60;99.90;;;;;;4952658;28;20532;-69
2021/08/18 15:59:29;;;;;;;3.70;3.60;;;19.60;99.90;;;;;;4952638;28;20496;-68
2021/08/18 16:01:56;;;;;;;3.97;3.77;;;19.60;99.90;;;;;;4947251;29;20504;-68
2021/08/18 16:04:23;;;;;;;3.50;3.40;;;19.60;99.90;;;;;;4954206;28;20575;-68
2021/08/18 16:06:50;;;;;;;3.90;3.60;;;19.50;99.90;;;;;;4952272;28;20484;-67
2021/08/18 16:09:16;;;;;;;3.77;3.67;;;19.50;99.90;;;;;;4953910;28;20473;-68
2021/08/18 16:11:44;;;;;;;4.07;3.77;;;19.50;99.90;;;;;;4953313;28;20568;-70
2021/08/18 16:14:11;;;;;;;4.30;3.90;;;19.50;99.90;;;;;;4953433;28;20536;-68
2021/08/18 16:16:37;;;;;;;4.57;4.17;;;19.40;99.90;;;;;;4953876;28;20471;-70
2021/08/18 16:19:04;;;;;;;4.33;4.13;;;19.40;99.90;;;;;;4938629;29;20488;-69
2021/08/18 16:21:31;;;;;;;4.13;4.03;;;19.30;99.90;;;;;;4953081;29;20507;-68
2021/08/18 16:23:58;;;;;;;4.07;3.97;;;19.40;99.90;;;;;;4951739;28;20468;-68
2021/08/18 16:26:25;;;;;;;3.50;3.40;;;19.40;99.90;;;;;;4952143;29;20493;-68
2021/08/18 16:28:53;;;;;;;3.77;3.57;;;19.30;99.90;;;;;;4939253;28;20577;-68
2021/08/18 16:31:19;;;;;;;4.03;3.83;;;19.40;99.90;;;;;;4952538;28;20484;-68
2021/08/18 16:33:46;;;;;;;3.37;3.27;;;19.30;99.90;;;;;;4953217;29;20464;-68
2021/08/18 16:36:13;;;;;;;3.90;3.80;;;19.30;99.90;;;;;;4953009;28;20488;-69
2021/08/18 16:38:39;;;;;;;3.67;3.53;;;19.20;99.90;;;;;;4953084;29;20989;-69
2021/08/18 16:41:06;;;;;;;3.77;3.57;;;19.20;99.90;;;;;;4952219;28;20634;-68
2021/08/18 16:43:33;;;;;;;4.20;4.00;;;19.20;99.90;;;;;;4944618;29;20472;-69
2021/08/18 16:46:02;;;;;;;5.50;5.20;;;19.20;99.90;;;;;;4951839;28;20473;-68
2021/08/18 16:48:29;;;;;;;4.40;4.10;;;19.10;99.90;;;;;;4961424;28;20458;-68
2021/08/18 16:50:57;;;;;;;3.87;3.77;;;19.10;99.90;;;;;;4952989;28;20485;-68
2021/08/18 16:53:24;;;;;;;4.13;3.83;;;19.10;99.90;;;;;;4946438;28;20483;-69